createdAt,value
2019-03-20T00:01:08.327Z,21.88
2019-03-20T00:06:12.668Z,21.89
2019-03-20T00:11:17.053Z,21.90
2019-03-20T00:16:21.398Z,21.82
2019-03-20T00:21:25.775Z,21.89
2019-03-20T00:26:30.087Z,21.89
2019-03-20T00:31:34.579Z,21.89
2019-03-20T00:36:38.877Z,21.86
2019-03-20T00:41:43.111Z,21.86
2019-03-20T00:46:47.331Z,21.89
2019-03-20T00:51:51.683Z,21.86
2019-03-20T00:56:56.060Z,21.84
2019-03-20T01:02:00.398Z,21.84
2019-03-20T01:07:04.765Z,21.85
2019-03-20T01:12:09.066Z,21.78
2019-03-20T01:17:13.371Z,21.73
2019-03-20T01:22:17.421Z,21.58
2019-03-20T01:27:21.528Z,21.58
2019-03-20T01:32:25.905Z,21.56
2019-03-20T01:37:30.262Z,21.48
2019-03-20T01:42:34.652Z,21.45
2019-03-20T01:47:38.955Z,21.40
2019-03-20T01:52:43.224Z,21.40
2019-03-20T01:57:47.425Z,21.32
2019-03-20T02:02:51.730Z,21.27
2019-03-20T02:07:56.150Z,21.23
2019-03-20T02:13:00.440Z,21.19
2019-03-20T02:18:04.852Z,21.17
2019-03-20T02:23:09.280Z,21.11
2019-03-20T02:28:13.625Z,21.08
2019-03-20T02:33:17.857Z,21.05
2019-03-20T02:38:22.070Z,21.04
2019-03-20T02:43:26.321Z,21.01
2019-03-20T02:48:30.609Z,20.98
2019-03-20T02:53:34.704Z,20.98
2019-03-20T02:58:38.885Z,20.92
2019-03-20T03:03:43.172Z,20.89
2019-03-20T03:08:47.503Z,20.86
2019-03-20T03:13:51.866Z,20.85
2019-03-20T03:18:56.130Z,20.82
2019-03-20T03:24:00.350Z,20.79
2019-03-20T03:29:04.617Z,20.79
2019-03-20T03:34:08.799Z,20.75
2019-03-20T03:39:12.933Z,20.73
2019-03-20T03:44:17.241Z,20.73
2019-03-20T03:49:21.655Z,20.70
2019-03-20T03:54:26.024Z,20.68
2019-03-20T03:59:30.393Z,20.68
2019-03-20T04:04:34.612Z,20.64
2019-03-20T04:09:38.967Z,20.64
2019-03-20T04:14:43.239Z,20.49
2019-03-20T04:19:47.454Z,20.55
2019-03-20T04:24:51.850Z,20.52
2019-03-20T04:29:56.196Z,20.52
2019-03-20T04:35:00.568Z,20.45
2019-03-20T04:46:02.813Z,20.39
2019-03-20T04:57:26.332Z,20.40
2019-03-20T05:02:30.754Z,20.29
2019-03-20T05:07:35.084Z,20.25
2019-03-20T05:12:39.427Z,20.22
2019-03-20T05:17:43.880Z,20.22
2019-03-20T05:22:48.280Z,20.19
2019-03-20T05:27:52.608Z,20.15
2019-03-20T05:32:56.839Z,20.14
2019-03-20T05:38:01.098Z,20.13
2019-03-20T05:43:05.489Z,20.13
2019-03-20T05:48:09.737Z,20.12
2019-03-20T05:53:13.905Z,20.12
2019-03-20T05:58:18.050Z,20.11
2019-03-20T06:03:22.508Z,20.09
2019-03-20T06:08:26.709Z,20.08
2019-03-20T06:13:30.978Z,20.07
2019-03-20T06:18:35.267Z,20.07
2019-03-20T06:23:39.506Z,20.06
2019-03-20T06:28:43.794Z,20.06
2019-03-20T06:33:47.987Z,20.06
2019-03-20T06:38:52.269Z,20.05
2019-03-20T06:43:56.523Z,20.04
2019-03-20T06:49:00.758Z,20.04
2019-03-20T06:54:05.080Z,20.02
2019-03-20T06:59:50.542Z,20.02
2019-03-20T07:05:36.228Z,20.02
2019-03-20T07:11:13.072Z,20.02
2019-03-20T07:16:17.340Z,20.01
2019-03-20T07:21:21.578Z,20.02
2019-03-20T07:26:25.811Z,20.02
2019-03-20T07:31:30.125Z,20.03
2019-03-20T07:36:34.553Z,20.03
2019-03-20T07:41:38.928Z,19.95
2019-03-20T07:46:43.209Z,20.04
2019-03-20T07:51:47.521Z,20.04
2019-03-20T07:56:51.522Z,20.04
2019-03-20T08:01:55.687Z,16.63
2019-03-20T08:06:59.857Z,16.63
2019-03-20T08:12:03.985Z,15.02
2019-03-20T08:17:08.245Z,14.64
2019-03-20T08:22:12.340Z,15.42
2019-03-20T08:27:16.368Z,17.56
2019-03-20T08:32:20.404Z,18.94
2019-03-20T08:37:24.508Z,18.94
2019-03-20T08:42:28.655Z,19.77
2019-03-20T08:47:32.683Z,19.81
2019-03-20T08:52:36.702Z,20.01
2019-03-20T08:57:40.735Z,20.11
2019-03-20T09:02:45.052Z,20.11
2019-03-20T09:07:49.152Z,20.11
2019-03-20T09:12:53.213Z,20.07
2019-03-20T09:17:57.297Z,20.07
2019-03-20T09:23:01.378Z,20.01
2019-03-20T09:28:05.518Z,20.15
2019-03-20T09:33:09.547Z,18.57
2019-03-20T09:38:13.587Z,19.58
2019-03-20T09:43:17.696Z,19.95
2019-03-20T09:48:21.887Z,20.40
2019-03-20T09:53:25.947Z,18.98
2019-03-20T09:58:30.053Z,18.98
2019-03-20T10:03:34.175Z,20.12
2019-03-20T10:08:38.259Z,20.29
2019-03-20T10:13:42.291Z,20.19
2019-03-20T10:18:46.330Z,20.21
2019-03-20T10:23:50.371Z,20.21
2019-03-20T10:28:54.405Z,20.14
2019-03-20T10:33:58.483Z,20.10
2019-03-20T10:39:06.810Z,20.10
2019-03-20T10:44:08.483Z,20.23
2019-03-20T10:49:12.488Z,20.23
2019-03-20T10:54:16.690Z,20.48
2019-03-20T10:59:20.716Z,20.48
2019-03-20T11:04:24.727Z,20.47
2019-03-20T11:09:28.833Z,20.43
2019-03-20T11:14:32.830Z,20.43
2019-03-20T11:19:36.861Z,20.37
2019-03-20T11:24:40.942Z,20.36
2019-03-20T11:29:45.157Z,20.33
2019-03-20T11:34:49.190Z,20.33
2019-03-20T11:39:53.330Z,20.45
2019-03-20T11:44:57.625Z,20.52
2019-03-20T11:50:01.756Z,20.61
2019-03-20T11:55:06.688Z,20.61
2019-03-20T12:00:13.057Z,20.78
2019-03-20T12:05:17.374Z,20.78
2019-03-20T12:10:22.445Z,20.79
2019-03-20T12:15:26.759Z,20.73
2019-03-20T12:20:30.936Z,19.19
2019-03-20T12:25:35.507Z,18.34
2019-03-20T12:30:39.736Z,18.05
2019-03-20T12:35:44.015Z,18.44
2019-03-20T12:40:48.168Z,19.60
2019-03-20T12:45:52.376Z,19.60
2019-03-20T12:50:56.418Z,20.67
2019-03-20T12:56:00.540Z,20.76
2019-03-20T13:01:04.860Z,20.82
2019-03-20T13:06:08.914Z,20.87
2019-03-20T13:11:12.960Z,20.87
2019-03-20T13:16:16.991Z,20.82
2019-03-20T13:21:21.096Z,21.01
2019-03-20T13:26:25.196Z,21.02
2019-03-20T13:31:29.220Z,21.00
2019-03-20T13:36:33.350Z,21.00
2019-03-20T13:41:37.441Z,20.97
2019-03-20T13:46:41.473Z,20.97
2019-03-20T13:51:45.599Z,20.91
2019-03-20T13:56:49.622Z,20.91
2019-03-20T14:01:53.701Z,20.99
2019-03-20T14:06:57.715Z,20.99
2019-03-20T14:12:02.113Z,21.00
2019-03-20T14:17:06.165Z,21.24
2019-03-20T14:22:10.202Z,21.19
2019-03-20T14:27:14.221Z,21.19
2019-03-20T14:32:18.418Z,21.29
2019-03-20T14:37:22.472Z,21.19
2019-03-20T14:42:26.738Z,21.12
2019-03-20T14:47:30.845Z,21.12
2019-03-20T14:52:34.869Z,21.05
2019-03-20T14:57:38.995Z,21.02
2019-03-20T15:02:43.111Z,21.01
2019-03-20T15:07:47.228Z,21.08
2019-03-20T15:12:51.439Z,21.22
2019-03-20T15:17:55.545Z,21.21
2019-03-20T15:22:59.674Z,21.21
2019-03-20T15:28:03.854Z,21.06
2019-03-20T15:33:07.960Z,21.09
2019-03-20T15:39:14.404Z,21.09
2019-03-20T15:44:18.507Z,21.09
2019-03-20T15:49:22.642Z,21.02
2019-03-20T15:54:26.748Z,21.04
2019-03-20T15:59:30.759Z,21.02
2019-03-20T16:04:34.966Z,21.15
2019-03-20T16:09:39.102Z,21.04
2019-03-20T16:14:43.300Z,21.01
2019-03-20T16:19:47.356Z,21.01
2019-03-20T16:24:51.512Z,21.08
2019-03-20T16:29:55.632Z,21.08
2019-03-20T16:34:59.854Z,21.25
2019-03-20T16:40:05.138Z,21.28
2019-03-20T16:45:11.700Z,21.28
2019-03-20T16:50:16.434Z,21.35
2019-03-20T16:55:20.762Z,21.35
2019-03-20T17:00:26.669Z,21.41
2019-03-20T17:05:30.972Z,21.39
2019-03-20T17:10:41.741Z,21.42
2019-03-20T17:15:53.032Z,21.42
2019-03-20T17:20:58.041Z,21.63
2019-03-20T17:26:02.376Z,22.34
2019-03-20T17:31:08.489Z,22.34
2019-03-20T17:36:12.582Z,22.61
2019-03-20T17:41:16.763Z,22.61
2019-03-20T17:46:20.972Z,22.51
2019-03-20T17:51:25.340Z,22.53
2019-03-20T17:56:29.350Z,22.53
2019-03-20T18:01:33.437Z,22.61
2019-03-20T18:06:37.656Z,22.61
2019-03-20T18:11:47.510Z,22.67
2019-03-20T18:16:47.678Z,22.74
2019-03-20T18:21:51.970Z,22.73
2019-03-20T18:26:56.078Z,22.83
2019-03-20T18:32:00.126Z,22.87
2019-03-20T18:37:04.230Z,22.91
2019-03-20T18:42:09.657Z,22.89
2019-03-20T18:47:14.033Z,22.83
2019-03-20T18:52:18.277Z,22.80
2019-03-20T18:57:22.388Z,22.74
2019-03-20T19:02:26.459Z,22.74
2019-03-20T19:07:30.512Z,22.79
2019-03-20T19:12:35.528Z,22.82
2019-03-20T19:17:39.695Z,22.86
2019-03-20T19:22:43.923Z,22.91
2019-03-20T19:27:48.060Z,22.86
2019-03-20T19:32:52.128Z,22.83
2019-03-20T19:37:56.226Z,22.75
2019-03-20T19:43:00.430Z,22.73
2019-03-20T19:48:05.115Z,22.69
2019-03-20T19:53:09.211Z,22.73
2019-03-20T19:58:13.350Z,22.83
2019-03-20T20:03:17.430Z,22.96
2019-03-20T20:08:21.500Z,22.96
2019-03-20T20:13:25.600Z,22.94
2019-03-20T20:18:29.719Z,22.84
2019-03-20T20:23:33.947Z,22.79
2019-03-20T20:28:38.217Z,22.69
2019-03-20T20:33:42.468Z,22.69
2019-03-20T20:38:46.480Z,22.56
2019-03-20T20:43:50.582Z,22.51
2019-03-20T20:48:54.631Z,22.51
2019-03-20T20:53:58.670Z,22.39
2019-03-20T20:59:02.727Z,22.46
2019-03-20T21:04:06.861Z,22.35
2019-03-20T21:09:10.903Z,22.26
2019-03-20T21:14:15.314Z,22.29
2019-03-20T21:19:40.116Z,22.31
2019-03-20T21:25:09.063Z,22.32
2019-03-20T21:30:53.031Z,22.43
2019-03-20T21:36:46.804Z,22.39
2019-03-20T21:42:41.239Z,22.37
2019-03-20T21:47:45.872Z,22.38
2019-03-20T21:52:50.479Z,22.28
2019-03-20T21:58:02.068Z,22.28
2019-03-20T22:03:06.755Z,22.28
2019-03-20T22:08:11.357Z,22.39
2019-03-20T22:13:23.367Z,22.28
2019-03-20T22:18:47.562Z,22.35
2019-03-20T22:24:33.300Z,22.35
2019-03-20T22:29:37.888Z,22.34
2019-03-20T22:35:04.603Z,22.33
2019-03-20T22:41:01.943Z,22.32
2019-03-20T22:46:47.390Z,22.31
2019-03-20T22:52:13.715Z,22.29
2019-03-20T22:57:44.517Z,22.20
2019-03-20T23:03:03.065Z,22.20
2019-03-20T23:08:17.309Z,22.28
2019-03-20T23:13:22.011Z,22.29
2019-03-20T23:18:26.600Z,22.29
2019-03-20T23:23:32.298Z,22.29
2019-03-20T23:28:37.137Z,22.28
2019-03-20T23:33:41.732Z,22.27
2019-03-20T23:38:46.512Z,22.27
2019-03-20T23:43:53.292Z,22.27
2019-03-20T23:49:07.002Z,22.26
2019-03-20T23:54:12.646Z,22.27
2019-03-20T23:59:17.256Z,22.28
